Time;durP1;ratioP1;P1;durP2;ratioP2;P2;SDS_P1;SDS_P2;PMS_P1;PMS_P2;Temp;Humidity;BMP_temperature;BMP_pressure;BME280_temperature;BME280_humidity;BME280_pressure;Samples;Min_cycle;Max_cycle;Signal;HPM_P1;HPM_P2
2022/07/02 00:02:12;;;;;;;3.37;2.30;;;14.00;99.90;;;12.97;89.54;98004.22;5031882;28;20411;-76
2022/07/02 00:04:46;;;;;;;3.78;2.30;;;14.00;99.90;;;12.96;89.86;98004.47;5033411;28;20398;-76
2022/07/02 00:07:14;;;;;;;5.55;2.25;;;13.90;99.90;;;12.95;89.86;98002.84;5073142;22;20462;-78
2022/07/02 00:09:41;;;;;;;2.72;2.20;;;13.90;99.90;;;12.94;89.85;97996.75;5072709;28;20399;-76
2022/07/02 00:12:10;;;;;;;6.00;2.13;;;13.90;99.90;;;12.93;90.10;97992.47;5073296;28;20408;-77
2022/07/02 00:14:37;;;;;;;3.97;1.95;;;13.90;99.90;;;12.95;90.01;97994.88;5055358;28;20494;-77
2022/07/02 00:17:04;;;;;;;2.83;2.10;;;13.90;99.90;;;12.88;90.20;97991.63;5073119;28;20488;-77
2022/07/02 00:19:30;;;;;;;6.80;2.58;;;13.90;99.90;;;12.91;90.26;97993.81;5072501;28;20400;-77
2022/07/02 00:21:58;;;;;;;7.00;2.05;;;13.90;99.90;;;12.87;90.26;97992.69;5073096;28;20395;-78
2022/07/02 00:24:24;;;;;;;4.70;2.10;;;13.80;99.90;;;12.87;90.50;97990.81;5073194;28;20430;-77
2022/07/02 00:26:55;;;;;;;5.93;1.90;;;13.80;99.90;;;12.80;90.14;97993.69;5073179;28;20742;-77
2022/07/02 00:29:33;;;;;;;3.20;1.80;;;13.80;99.90;;;12.77;90.58;97998.72;5072504;28;20395;-77
2022/07/02 00:31:59;;;;;;;9.00;2.00;;;13.70;99.90;;;12.74;90.93;97999.19;5071714;28;20785;-77
2022/07/02 00:34:25;;;;;;;3.15;2.03;;;13.70;99.90;;;12.75;90.99;98000.81;5072570;28;20400;-77
2022/07/02 00:36:52;;;;;;;3.63;1.90;;;13.70;99.90;;;12.74;90.88;97999.19;5072513;28;20411;-77
2022/07/02 00:39:18;;;;;;;4.07;2.10;;;13.70;99.90;;;12.74;90.85;98001.84;5072077;28;20878;-77
2022/07/02 00:41:44;;;;;;;2.50;1.80;;;13.70;99.90;;;12.74;90.41;97996.53;5070970;28;20404;-77
2022/07/02 00:44:12;;;;;;;4.40;2.03;;;13.70;99.90;;;12.70;90.71;97990.94;5072694;28;20400;-77
2022/07/02 00:46:42;;;;;;;2.23;1.80;;;13.70;99.90;;;12.72;90.83;97998.63;5072666;28;20391;-77
2022/07/02 00:49:09;;;;;;;3.38;1.90;;;13.70;99.90;;;12.66;91.21;98000.44;5072067;28;20428;-77
2022/07/02 00:51:35;;;;;;;4.15;2.47;;;13.60;99.90;;;12.65;91.29;98003.34;5072475;28;20432;-77
2022/07/02 00:54:02;;;;;;;3.13;1.90;;;13.60;99.90;;;12.67;91.31;98001.25;5072740;28;20435;-77
2022/07/02 00:56:28;;;;;;;2.77;1.73;;;13.70;99.90;;;12.66;91.20;98005.75;5072496;28;20821;-77
2022/07/02 00:58:55;;;;;;;2.30;1.95;;;13.60;99.90;;;12.70;91.13;97995.44;5071919;28;20781;-78
2022/07/02 01:01:21;;;;;;;3.88;1.80;;;13.60;99.90;;;12.65;91.00;97998.03;5072309;28;20403;-78
2022/07/02 01:03:51;;;;;;;3.78;1.80;;;13.70;99.90;;;12.61;91.51;97999.59;5072514;28;20477;-78
2022/07/02 01:06:18;;;;;;;3.05;1.95;;;13.60;99.90;;;12.64;91.71;98005.19;5072215;28;20395;-77
2022/07/02 01:11:32;;;;;;;3.53;1.90;;;13.60;99.90;;;12.64;91.78;97999.06;5066542;28;20399;-77
2022/07/02 01:13:58;;;;;;;3.42;1.90;;;13.60;99.90;;;12.60;92.04;97990.81;5072141;28;20388;-78
2022/07/02 01:16:24;;;;;;;2.75;1.90;;;13.60;99.90;;;12.59;92.04;97991.06;5071874;28;20423;-78
2022/07/02 01:18:52;;;;;;;2.30;1.80;;;13.60;99.90;;;12.59;91.86;97994.53;5071307;28;20912;-77
2022/07/02 01:21:18;;;;;;;2.58;1.80;;;13.60;99.90;;;12.60;91.44;97995.34;5071228;28;20422;-78
2022/07/02 01:23:45;;;;;;;3.03;1.80;;;13.60;99.90;;;12.58;91.72;97981.50;5072189;28;20404;-78
2022/07/02 01:26:11;;;;;;;2.20;1.77;;;13.60;99.90;;;12.57;91.59;97982.53;5072004;28;20422;-78
2022/07/02 01:28:37;;;;;;;4.30;1.92;;;13.50;99.90;;;12.61;91.53;97989.78;5071735;28;20601;-77
2022/07/02 01:31:03;;;;;;;3.40;1.95;;;13.60;99.90;;;12.55;91.40;97989.97;5072321;28;20928;-78
2022/07/02 01:33:29;;;;;;;1.80;1.50;;;13.50;99.90;;;12.51;91.79;97979.03;5072326;28;20499;-78
2022/07/02 01:35:55;;;;;;;3.00;1.70;;;13.50;99.90;;;12.48;91.77;97971.53;5072163;28;20483;-77
2022/07/02 01:38:21;;;;;;;2.17;1.70;;;13.50;99.90;;;12.48;91.88;97974.19;5070847;28;20503;-77
2022/07/02 01:40:48;;;;;;;3.73;1.80;;;13.50;99.90;;;12.47;91.75;97985.91;5071688;28;20392;-78
2022/07/02 01:43:14;;;;;;;2.20;1.60;;;13.50;99.90;;;12.45;91.44;97988.00;5063989;28;20889;-78
2022/07/02 01:45:40;;;;;;;5.65;1.77;;;13.50;99.90;;;12.41;91.93;97978.91;5071765;28;20410;-78
2022/07/02 01:48:06;;;;;;;3.78;1.42;;;13.40;99.90;;;12.37;91.87;97986.56;5071266;28;20402;-77
2022/07/02 01:50:35;;;;;;;4.93;1.77;;;13.40;99.90;;;12.36;91.89;97986.81;5071053;28;20403;-77
2022/07/02 01:53:01;;;;;;;3.25;1.58;;;13.30;99.90;;;12.32;91.75;97981.22;5071606;28;20404;-78
2022/07/02 01:55:27;;;;;;;2.63;1.70;;;13.30;99.90;;;12.36;91.72;97981.50;5071235;28;20415;-77
2022/07/02 01:57:55;;;;;;;4.77;1.70;;;13.30;99.90;;;12.34;91.76;97980.94;5071413;28;20455;-78
2022/07/02 02:00:21;;;;;;;3.97;1.80;;;13.30;99.90;;;12.31;91.83;97990.22;5070613;28;20403;-78
2022/07/02 02:02:46;;;;;;;1.55;1.42;;;13.30;99.90;;;12.25;92.26;97991.22;5071149;28;20402;-78
2022/07/02 02:05:12;;;;;;;2.73;1.60;;;13.20;99.90;;;12.28;92.40;97987.25;5070741;28;21136;-77
2022/07/02 02:07:38;;;;;;;8.52;1.80;;;13.20;99.90;;;12.23;92.54;97990.66;5071234;28;20406;-78
2022/07/02 02:10:06;;;;;;;2.50;1.50;;;13.20;99.90;;;12.26;92.60;97984.03;5070384;28;20765;-78
2022/07/02 02:12:32;;;;;;;3.28;1.70;;;13.20;99.90;;;12.26;92.74;97984.84;5071172;28;20411;-78
2022/07/02 02:14:59;;;;;;;3.47;1.85;;;13.20;99.90;;;12.23;92.49;97987.19;5071097;28;20486;-78
2022/07/02 02:17:25;;;;;;;2.97;1.83;;;13.20;99.90;;;12.21;92.88;97987.44;5070740;28;20765;-78
2022/07/02 02:19:51;;;;;;;2.95;2.08;;;13.20;99.90;;;12.21;92.88;97994.59;5070462;28;20395;-78
2022/07/02 02:22:17;;;;;;;2.00;1.50;;;13.20;99.90;;;12.17;93.32;97988.19;5070666;28;20490;-78
2022/07/02 02:24:43;;;;;;;3.27;1.60;;;13.20;99.90;;;12.21;92.95;97992.75;5070817;28;20404;-78
2022/07/02 02:27:08;;;;;;;2.40;1.73;;;13.20;99.90;;;12.18;93.03;97987.91;5070901;28;20427;-78
2022/07/02 02:29:34;;;;;;;4.03;1.80;;;13.20;99.90;;;12.22;93.15;97989.03;5070195;28;20391;-78
2022/07/02 02:32:02;;;;;;;7.00;1.92;;;13.20;99.90;;;12.18;92.84;97981.84;5070498;28;20545;-77
2022/07/02 02:34:28;;;;;;;2.60;2.15;;;13.20;99.90;;;12.14;93.23;97984.16;5070632;28;20403;-77
2022/07/02 02:36:54;;;;;;;3.15;2.00;;;13.10;99.90;;;12.13;93.35;97979.09;5070651;28;20735;-77
2022/07/02 02:39:20;;;;;;;1.73;1.63;;;13.10;99.90;;;12.12;93.23;97986.25;5070097;28;20396;-77
2022/07/02 02:41:46;;;;;;;3.55;1.90;;;13.10;99.90;;;12.15;93.16;97983.13;5070293;28;21067;-77
2022/07/02 02:44:12;;;;;;;3.05;2.20;;;13.10;99.90;;;12.13;93.13;97979.91;5070502;28;20399;-77
2022/07/02 02:46:37;;;;;;;3.33;2.50;;;13.10;99.90;;;12.14;93.11;97983.34;5070317;28;20399;-77
2022/07/02 02:49:05;;;;;;;3.87;2.67;;;13.10;99.90;;;12.15;93.43;97980.47;5069739;28;20427;-77
2022/07/02 02:51:31;;;;;;;5.28;2.22;;;13.10;99.90;;;12.12;93.48;97980.13;5070197;28;20415;-77
2022/07/02 02:53:56;;;;;;;2.20;1.95;;;13.10;99.90;;;12.09;93.76;97978.00;5070472;28;20395;-77
2022/07/02 02:56:22;;;;;;;3.63;2.30;;;13.10;99.90;;;12.15;93.55;97985.78;5070203;28;20402;-77
2022/07/02 02:58:48;;;;;;;2.78;2.17;;;13.10;99.90;;;12.17;93.75;97975.72;5069590;28;20415;-78
2022/07/02 03:01:14;;;;;;;3.60;2.50;;;13.10;99.90;;;12.20;93.77;97977.06;5069281;28;20415;-78
2022/07/02 03:03:40;;;;;;;3.47;2.50;;;13.20;99.90;;;12.19;93.69;97980.75;5070086;28;20396;-78
2022/07/02 03:06:07;;;;;;;4.65;2.40;;;13.20;99.90;;;12.19;93.87;97978.91;5069701;28;20408;-78
2022/07/02 03:08:33;;;;;;;3.13;2.40;;;13.10;99.90;;;12.18;93.96;97984.47;5069518;28;20930;-78
2022/07/02 03:10:59;;;;;;;4.05;2.50;;;13.20;99.90;;;12.15;94.05;97985.78;5069826;28;20482;-78
2022/07/02 03:13:25;;;;;;;3.95;2.20;;;13.10;99.90;;;12.14;94.10;97988.66;5064697;28;20413;-78
2022/07/02 03:15:52;;;;;;;4.30;2.40;;;13.10;99.90;;;12.07;94.19;97991.50;5066321;28;20402;-78
2022/07/02 03:18:19;;;;;;;4.80;2.58;;;13.10;99.90;;;12.05;94.37;97984.81;5069212;28;20407;-78
2022/07/02 03:20:45;;;;;;;4.45;2.45;;;13.00;99.90;;;12.02;94.94;97976.31;5069622;28;20427;-78
2022/07/02 03:23:12;;;;;;;3.40;2.63;;;13.00;99.90;;;12.05;94.86;97988.28;5069990;28;20461;-78
2022/07/02 03:25:38;;;;;;;3.25;2.67;;;13.00;99.90;;;12.05;95.11;97982.97;5070001;28;20953;-78
2022/07/02 03:28:04;;;;;;;3.30;2.95;;;13.00;99.90;;;12.02;95.22;97986.94;5069313;28;20420;-78
2022/07/02 03:30:30;;;;;;;4.75;3.05;;;13.00;99.90;;;12.04;95.04;97989.31;5068288;28;20906;-78
2022/07/02 03:32:56;;;;;;;3.65;3.20;;;13.00;99.90;;;12.02;95.64;97991.44;5069930;28;20403;-78
2022/07/02 03:35:22;;;;;;;3.25;2.80;;;13.00;99.90;;;12.04;95.21;97991.97;5069915;28;20930;-78
2022/07/02 03:37:48;;;;;;;5.75;2.90;;;13.00;99.90;;;12.03;95.12;97993.81;5069460;28;20465;-78
2022/07/02 03:40:15;;;;;;;3.80;2.80;;;13.00;99.90;;;12.00;95.04;97996.19;5068875;28;20403;-78
2022/07/02 03:42:41;;;;;;;3.90;2.75;;;13.00;99.90;;;12.01;95.25;97995.13;5069745;28;20438;-78
2022/07/02 03:45:08;;;;;;;3.15;2.50;;;13.00;99.90;;;12.01;95.04;97997.78;5069599;28;20406;-78
2022/07/02 03:47:34;;;;;;;4.72;2.83;;;13.00;99.90;;;12.00;95.39;97999.63;5069774;28;20399;-78
2022/07/02 03:49:59;;;;;;;6.03;3.10;;;13.00;99.90;;;12.00;95.55;98001.50;5069159;28;20452;-78
2022/07/02 03:52:25;;;;;;;5.13;3.00;;;13.00;99.90;;;11.99;95.59;98005.19;5069742;28;20411;-78
2022/07/02 03:54:51;;;;;;;4.10;2.85;;;12.90;99.90;;;11.99;95.49;98011.28;5069818;28;20453;-78
2022/07/02 03:57:19;;;;;;;3.60;2.38;;;13.00;99.90;;;11.99;95.31;98006.00;5069687;28;20411;-78
2022/07/02 03:59:45;;;;;;;3.22;2.60;;;13.00;99.90;;;11.99;95.16;98013.94;5068890;28;20403;-78
2022/07/02 04:02:11;;;;;;;3.40;2.40;;;13.00;99.90;;;12.01;95.06;98003.91;5069806;28;20407;-78
2022/07/02 04:04:36;;;;;;;4.23;2.43;;;13.00;99.90;;;12.00;95.15;98004.16;5069879;28;20438;-78
2022/07/02 04:07:03;;;;;;;4.22;2.28;;;13.00;99.90;;;12.00;95.39;98010.25;5069562;28;20521;-78
2022/07/02 04:09:29;;;;;;;2.42;2.15;;;13.00;99.90;;;12.02;95.07;98010.00;5069050;28;20512;-78
2022/07/02 04:11:55;;;;;;;4.10;2.60;;;13.00;99.90;;;12.05;95.08;98008.69;5069426;28;20396;-78
2022/07/02 04:14:22;;;;;;;2.60;2.15;;;13.00;99.90;;;12.07;95.14;98018.03;5069627;28;20483;-78
2022/07/02 04:16:48;;;;;;;4.33;2.20;;;13.00;99.90;;;12.09;94.81;98013.28;5069552;28;20426;-78
2022/07/02 04:19:14;;;;;;;2.38;2.17;;;13.00;99.90;;;12.11;94.85;98013.84;5068970;28;20464;-78
2022/07/02 04:21:40;;;;;;;2.10;1.90;;;13.10;99.90;;;12.16;94.74;98013.13;5069490;28;20396;-78
2022/07/02 04:24:06;;;;;;;3.22;2.05;;;13.10;99.90;;;12.19;94.72;98017.91;5069526;28;20475;-78
2022/07/02 04:26:32;;;;;;;2.42;2.13;;;13.10;99.90;;;12.24;94.62;98018.81;5069198;28;20402;-78
2022/07/02 04:28:58;;;;;;;2.97;2.30;;;13.20;99.90;;;12.27;94.86;98018.28;5071681;28;20404;-78
2022/07/02 04:31:26;;;;;;;2.42;1.80;;;13.20;99.90;;;12.31;94.62;98018.63;5072848;28;20407;-78
2022/07/02 04:33:51;;;;;;;3.60;3.03;;;13.20;99.90;;;12.38;94.81;98014.72;5073290;28;20911;-78
2022/07/02 04:36:17;;;;;;;6.33;4.23;;;13.30;99.90;;;12.50;95.42;98013.78;5072804;28;20403;-78
2022/07/02 04:38:43;;;;;;;4.55;4.15;;;13.40;99.90;;;12.57;95.29;98011.75;5072107;28;20423;-78
2022/07/02 04:41:09;;;;;;;6.10;4.18;;;13.50;99.90;;;12.65;95.34;98019.28;5072799;28;20399;-78
2022/07/02 04:43:35;;;;;;;7.32;4.40;;;13.60;99.90;;;12.73;95.51;98016.19;5072919;28;20396;-78
2022/07/02 04:46:01;;;;;;;4.70;4.13;;;13.60;99.90;;;12.80;95.32;98017.59;5072821;28;20408;-78
2022/07/02 04:48:29;;;;;;;7.78;4.80;;;13.70;99.90;;;12.87;95.35;98013.94;5072467;28;20404;-77
2022/07/02 04:50:55;;;;;;;9.82;5.45;;;13.70;99.90;;;12.94;95.35;98017.19;5072590;28;20889;-78
2022/07/02 04:53:21;;;;;;;5.30;4.80;;;13.80;99.90;;;13.00;95.15;98013.56;5072783;28;20506;-77
2022/07/02 04:55:46;;;;;;;6.30;4.70;;;13.80;99.90;;;13.06;95.04;98009.91;5072710;28;20400;-78
2022/07/02 04:58:12;;;;;;;5.13;4.40;;;14.00;99.90;;;13.13;95.09;98013.19;5072227;28;20766;-78
2022/07/02 05:00:38;;;;;;;5.70;4.27;;;14.00;99.90;;;13.27;94.89;98014.38;5072391;28;20408;-78
2022/07/02 05:03:04;;;;;;;6.45;4.80;;;14.10;99.90;;;13.33;94.54;98012.56;5072598;28;20411;-77
2022/07/02 05:05:32;;;;;;;5.28;4.25;;;14.20;99.90;;;13.40;94.53;98007.81;5072459;28;20897;-77
2022/07/02 05:07:57;;;;;;;6.30;4.82;;;14.20;99.90;;;13.50;94.30;98008.72;5070994;28;20901;-77
2022/07/02 05:10:24;;;;;;;6.03;4.35;;;14.30;99.90;;;13.57;93.89;98013.81;5071792;28;20414;-78
2022/07/02 05:12:49;;;;;;;4.88;4.22;;;14.40;99.90;;;13.66;93.67;98012.28;5072694;28;20404;-77
2022/07/02 05:15:16;;;;;;;5.90;4.30;;;14.50;99.90;;;13.78;93.50;98020.09;5072215;28;20410;-77
2022/07/02 05:17:42;;;;;;;5.50;4.00;;;14.60;99.90;;;13.92;92.80;98019.38;5072398;28;21009;-77
2022/07/02 05:20:09;;;;;;;6.22;4.32;;;14.70;99.90;;;13.99;92.24;98024.47;5071752;28;20407;-77
2022/07/02 05:22:36;;;;;;;6.18;4.10;;;14.80;99.90;;;14.04;91.96;98027.19;5072350;28;20403;-77
2022/07/02 05:25:03;;;;;;;6.63;4.03;;;14.90;99.90;;;14.09;91.25;98015.75;5072554;28;20465;-77
2022/07/02 05:27:29;;;;;;;4.28;3.47;;;14.90;99.90;;;14.17;91.27;98021.41;5072322;28;20418;-78
2022/07/02 05:29:55;;;;;;;7.60;4.00;;;15.00;99.90;;;14.16;90.57;98019.78;5071890;28;20400;-78
2022/07/02 05:32:21;;;;;;;5.10;3.60;;;15.00;99.90;;;14.20;90.19;98025.41;5071114;28;20407;-78
2022/07/02 05:34:46;;;;;;;8.95;3.85;;;15.10;99.90;;;14.27;90.06;98018.00;5071794;28;20833;-78
2022/07/02 05:37:12;;;;;;;3.35;3.05;;;15.10;99.90;;;14.32;90.26;98018.00;5063542;28;20734;-78
2022/07/02 05:39:40;;;;;;;5.00;3.30;;;15.20;99.90;;;14.36;90.19;98019.06;5070288;28;20761;-78
2022/07/02 05:42:06;;;;;;;4.10;3.28;;;15.20;99.90;;;14.40;90.33;98020.22;5071619;28;20422;-78
2022/07/02 05:44:32;;;;;;;3.40;2.70;;;15.20;99.90;;;14.46;90.01;98023.69;5070975;28;20408;-77
2022/07/02 05:46:58;;;;;;;6.17;2.50;;;15.30;99.90;;;14.52;89.80;98023.44;5071694;28;20399;-77
2022/07/02 05:49:24;;;;;;;3.80;2.60;;;15.30;99.90;;;14.58;90.00;98026.94;5044791;28;20534;-77
2022/07/02 05:51:50;;;;;;;5.63;2.75;;;15.40;99.90;;;14.61;89.54;98027.22;5071370;28;20403;-78
2022/07/02 05:54:16;;;;;;;3.40;2.78;;;15.40;99.90;;;14.69;88.89;98023.25;5071740;28;20407;-77
2022/07/02 05:56:43;;;;;;;3.78;2.28;;;15.50;99.90;;;14.69;88.60;98029.38;5071207;28;20522;-77
2022/07/02 05:59:09;;;;;;;2.65;1.95;;;15.50;99.90;;;14.68;88.65;98030.44;5070763;28;20966;-77
2022/07/02 06:01:35;;;;;;;2.80;2.20;;;15.50;99.90;;;14.66;88.84;98023.75;5071010;28;20407;-78
2022/07/02 06:04:01;;;;;;;5.63;2.42;;;15.50;99.90;;;14.64;88.65;98020.56;5071399;28;20399;-78
2022/07/02 06:09:12;;;;;;;5.17;2.57;;;15.50;99.90;;;14.67;88.96;98036.03;5070332;28;20411;-73
2022/07/02 06:11:38;;;;;;;3.60;2.05;;;15.50;99.90;;;14.70;88.68;98032.84;5067587;28;20768;-73
2022/07/02 06:14:05;;;;;;;3.20;1.80;;;15.50;99.90;;;14.73;88.35;98035.00;5070791;28;20426;-73
2022/07/02 06:16:31;;;;;;;1.65;1.55;;;15.50;99.90;;;14.76;88.47;98029.13;5070698;28;20395;-73
2022/07/02 06:18:57;;;;;;;3.20;1.60;;;15.50;99.90;;;14.77;88.67;98033.41;5066390;28;20427;-72
2022/07/02 06:21:23;;;;;;;2.20;1.60;;;15.60;99.90;;;14.79;88.74;98025.97;5060830;28;20965;-73
2022/07/02 06:23:49;;;;;;;2.35;1.70;;;15.60;99.90;;;14.84;88.76;98035.81;5063340;28;20409;-72
2022/07/02 06:26:15;;;;;;;1.80;1.60;;;15.60;99.90;;;14.88;88.80;98029.72;5064299;28;20400;-72
2022/07/02 06:28:41;;;;;;;2.90;1.60;;;15.70;99.90;;;14.91;88.75;98023.84;5061358;28;20408;-72
2022/07/02 06:31:08;;;;;;;2.45;1.40;;;15.70;99.90;;;14.97;88.58;98027.31;5064285;28;20751;-73
2022/07/02 06:33:34;;;;;;;1.50;1.40;;;15.70;99.90;;;14.97;88.33;98022.78;5062657;28;20965;-73
2022/07/02 06:36:01;;;;;;;2.35;1.25;;;15.80;99.90;;;15.04;88.29;98019.88;5063815;28;20400;-73
2022/07/02 06:38:27;;;;;;;3.25;1.40;;;15.80;99.90;;;15.09;87.99;98015.38;5058865;28;20490;-73
2022/07/02 06:40:55;;;;;;;1.60;1.20;;;15.90;99.90;;;15.14;87.98;98019.88;5061026;28;20416;-72
2022/07/02 06:43:23;;;;;;;1.50;1.40;;;15.90;99.90;;;15.17;87.53;98019.38;5064931;28;20912;-73
2022/07/02 06:45:49;;;;;;;1.20;1.10;;;16.00;99.90;;;15.21;87.33;98022.28;5061989;28;20433;-73
2022/07/02 06:48:17;;;;;;;1.50;1.00;;;16.00;99.90;;;15.25;87.32;98018.06;5058961;28;20401;-73
2022/07/02 06:50:43;;;;;;;1.83;1.30;;;16.00;99.90;;;15.28;87.14;98012.97;5059477;28;20464;-74
2022/07/02 06:53:09;;;;;;;1.20;1.10;;;16.10;99.90;;;15.28;86.52;98015.63;5060847;28;20771;-73
2022/07/02 06:55:35;;;;;;;2.75;1.13;;;16.10;99.90;;;15.37;86.16;98018.59;5058868;28;20934;-73
2022/07/02 06:58:01;;;;;;;2.10;1.40;;;16.10;99.90;;;15.39;85.04;98017.25;5059943;28;20420;-74
2022/07/02 07:00:27;;;;;;;3.10;1.30;;;16.20;99.90;;;15.51;82.35;98019.66;5060130;28;20488;-75
2022/07/02 07:02:53;;;;;;;2.20;1.00;;;16.30;99.90;;;15.57;83.14;98013.28;5060451;28;20474;-72
2022/07/02 07:05:20;;;;;;;3.78;1.30;;;16.30;99.90;;;15.60;83.56;98025.28;5060703;28;20415;-73
2022/07/02 07:07:46;;;;;;;1.10;1.00;;;16.30;99.90;;;15.63;82.94;98022.91;5058559;28;20408;-72
2022/07/02 07:10:15;;;;;;;1.70;1.13;;;16.40;99.90;;;15.67;82.33;98023.16;5057663;28;20400;-73
2022/07/02 07:12:41;;;;;;;3.22;1.10;;;16.40;99.90;;;15.74;80.98;98029.81;5058917;28;20631;-72
2022/07/02 07:15:09;;;;;;;1.17;1.08;;;16.50;99.90;;;15.76;80.47;98032.22;5063778;28;20396;-73
2022/07/02 07:17:36;;;;;;;1.43;1.00;;;16.50;99.90;;;15.78;79.80;98030.09;5069671;28;20461;-73
2022/07/02 07:20:02;;;;;;;1.35;1.00;;;16.60;99.90;;;15.80;80.34;98025.28;5069024;28;20402;-74
2022/07/02 07:22:30;;;;;;;1.13;0.93;;;16.50;99.90;;;15.82;80.87;98015.94;5069051;28;20418;-75
2022/07/02 07:24:56;;;;;;;1.15;1.00;;;16.60;99.90;;;15.88;80.51;98022.06;5069508;28;20807;-74
2022/07/02 07:27:22;;;;;;;1.30;1.03;;;16.60;99.90;;;15.94;79.82;98020.97;5067642;28;20395;-74
2022/07/02 07:29:47;;;;;;;1.20;1.02;;;16.60;99.90;;;16.00;78.20;98021.78;5067709;28;20391;-73
2022/07/02 07:32:13;;;;;;;1.13;0.90;;;16.70;99.90;;;16.08;77.11;98011.34;5069191;28;20419;-74
2022/07/02 07:34:39;;;;;;;2.22;0.82;;;16.80;99.90;;;16.13;77.00;98021.22;5068712;28;20456;-73
2022/07/02 07:37:05;;;;;;;1.00;0.90;;;16.90;99.90;;;16.24;76.72;98014.75;5069535;28;20396;-74
2022/07/02 07:39:33;;;;;;;1.92;1.35;;;17.00;99.90;;;16.26;76.70;98016.09;5068863;28;20429;-74
2022/07/02 07:41:59;;;;;;;1.15;1.00;;;17.00;99.90;;;16.29;75.30;98011.28;5069630;28;20404;-73
2022/07/02 07:44:25;;;;;;;1.42;0.90;;;17.00;99.90;;;16.33;76.41;98017.69;5069497;28;20411;-73
2022/07/02 07:46:51;;;;;;;2.95;0.98;;;17.10;99.90;;;16.33;75.43;98005.13;5069863;28;20418;-73
2022/07/02 07:49:16;;;;;;;1.45;0.80;;;17.10;99.90;;;16.36;75.20;98009.94;5063105;28;20477;-74
2022/07/02 07:51:42;;;;;;;1.90;0.93;;;17.10;99.90;;;16.44;74.89;98001.34;5069473;28;20897;-74
2022/07/02 07:54:08;;;;;;;1.07;0.90;;;17.10;99.90;;;16.47;75.20;98000.00;5060784;28;20500;-75
2022/07/02 07:56:36;;;;;;;1.00;0.90;;;17.20;99.90;;;16.57;74.33;98005.31;5051955;28;20419;-74
2022/07/02 07:59:02;;;;;;;1.35;1.20;;;17.30;99.90;;;16.63;74.44;98010.38;5064360;28;20412;-75
2022/07/02 08:01:28;;;;;;;1.80;1.00;;;17.30;99.90;;;16.69;75.21;98005.78;5068600;28;20403;-73
2022/07/02 08:03:54;;;;;;;2.60;1.00;;;17.40;99.90;;;16.74;75.32;98007.66;5053960;28;20862;-73
2022/07/02 08:06:19;;;;;;;1.00;0.90;;;17.40;99.90;;;16.77;75.29;98001.75;5068366;28;20419;-74
2022/07/02 08:08:45;;;;;;;1.55;0.90;;;17.50;99.90;;;16.83;74.46;98000.66;5069922;28;20414;-74
2022/07/02 08:11:11;;;;;;;0.82;0.82;;;17.50;99.90;;;16.91;74.49;97992.88;5072732;28;20400;-73
2022/07/02 08:13:39;;;;;;;1.52;0.90;;;17.60;99.90;;;16.98;74.59;97988.00;5073191;28;20399;-74
2022/07/02 08:16:05;;;;;;;1.52;0.95;;;17.70;99.90;;;17.10;74.23;97989.53;5071255;28;20534;-73
2022/07/02 08:18:32;;;;;;;1.95;0.95;;;17.80;99.90;;;17.19;74.32;97985.19;5070734;28;20439;-74
2022/07/02 08:20:59;;;;;;;1.10;1.00;;;17.80;99.90;;;17.29;74.15;97985.13;5071352;28;20445;-74
2022/07/02 08:23:25;;;;;;;0.82;0.80;;;17.90;99.90;;;17.33;72.85;97973.56;5071315;28;20819;-73
2022/07/02 08:25:53;;;;;;;1.70;0.90;;;18.00;99.90;;;17.46;72.30;97969.44;5071521;28;20832;-74
2022/07/02 08:28:19;;;;;;;2.20;1.00;;;18.10;99.90;;;17.57;71.41;97983.56;5069849;28;20427;-73
2022/07/02 08:30:46;;;;;;;0.98;0.88;;;18.30;99.90;;;17.63;71.17;97977.91;5065236;28;20940;-73
2022/07/02 08:33:15;;;;;;;1.80;0.90;;;18.30;99.90;;;17.77;70.85;97975.34;5064712;28;20768;-73
2022/07/02 08:35:41;;;;;;;3.50;0.80;;;18.40;99.90;;;17.84;70.74;97975.81;5072854;28;20448;-74
2022/07/02 08:38:07;;;;;;;1.77;0.80;;;18.50;99.90;;;17.91;70.55;97978.16;5053923;28;20431;-73
2022/07/02 08:40:33;;;;;;;1.10;0.60;;;18.60;99.90;;;18.02;66.95;97972.41;5071899;28;20466;-72
2022/07/02 08:43:03;;;;;;;0.93;0.80;;;18.70;97.70;;;18.12;67.47;97971.50;5072792;28;20466;-73
2022/07/02 08:45:31;;;;;;;0.73;0.70;;;18.80;97.70;;;18.19;67.39;97972.75;5072904;28;20929;-72
2022/07/02 08:48:01;;;;;;;2.00;0.80;;;18.80;97.40;;;18.38;64.49;97972.81;5072723;28;20876;-73
2022/07/02 08:50:27;;;;;;;1.23;0.80;;;19.00;94.60;;;18.37;65.66;97965.03;5072320;28;20396;-73
2022/07/02 08:52:53;;;;;;;1.05;0.80;;;19.00;94.80;;;18.41;64.61;97961.53;5072765;28;20404;-73
2022/07/02 08:55:20;;;;;;;0.77;0.77;;;19.00;94.10;;;18.50;63.87;97956.28;5072606;28;20494;-73
2022/07/02 08:57:47;;;;;;;0.70;0.70;;;19.10;92.70;;;18.54;63.46;97955.44;5072256;28;20416;-74
2022/07/02 09:00:15;;;;;;;1.90;0.80;;;19.20;92.00;;;18.69;62.41;97951.78;5071723;28;20423;-72
2022/07/02 09:02:42;;;;;;;1.33;0.80;;;19.30;91.40;;;18.78;62.07;97954.63;5072514;28;20406;-72
2022/07/02 09:05:12;;;;;;;1.33;0.80;;;19.40;90.60;;;18.81;61.88;97957.50;5072289;28;20431;-74
2022/07/02 09:07:40;;;;;;;1.10;0.60;;;19.50;90.10;;;18.81;62.21;97957.50;5054309;28;20402;-74
2022/07/02 09:10:09;;;;;;;2.40;0.70;;;19.50;90.20;;;18.93;61.46;97952.53;5071439;28;20439;-73
2022/07/02 09:12:35;;;;;;;1.10;0.80;;;19.60;89.20;;;19.06;58.99;97936.78;5072366;28;20427;-74
2022/07/02 09:15:01;;;;;;;1.45;0.70;;;19.70;84.70;;;19.16;60.66;97928.56;5052918;28;20832;-73
2022/07/02 09:17:27;;;;;;;0.80;0.63;;;19.70;86.30;;;19.13;60.63;97938.00;5072059;28;20407;-73
2022/07/02 09:19:53;;;;;;;2.70;0.80;;;19.80;86.60;;;19.25;60.32;97924.91;5071678;28;20407;-74
2022/07/02 09:22:32;;;;;;;1.10;0.77;;;19.80;86.50;;;19.38;58.46;97927.94;5072049;28;20407;-73
2022/07/02 09:25:08;;;;;;;1.60;0.75;;;20.00;84.00;;;19.50;57.45;97930.97;5072105;28;20407;-73
2022/07/02 09:27:34;;;;;;;2.53;0.95;;;20.10;82.30;;;19.56;56.59;97937.84;5071910;28;20407;-73
2022/07/02 09:30:00;;;;;;;1.10;0.82;;;20.20;79.50;;;19.56;54.43;97922.53;5071382;28;20419;-74
2022/07/02 09:32:26;;;;;;;1.80;0.73;;;20.20;75.80;;;19.72;54.21;97939.16;5071895;28;20953;-74
2022/07/02 09:34:54;;;;;;;1.52;0.80;;;20.30;75.50;;;19.73;52.37;97943.44;5071840;28;20920;-73
2022/07/02 09:37:25;;;;;;;0.75;0.70;;;20.40;72.70;;;19.78;51.80;97946.03;5071729;28;20907;-74
2022/07/02 09:39:53;;;;;;;1.97;0.90;;;20.40;71.40;;;19.82;53.33;97944.38;5071284;28;20454;-73
2022/07/02 09:42:26;;;;;;;1.48;0.70;;;20.40;72.90;;;20.02;48.87;97948.56;5071704;28;20466;-74
2022/07/02 09:44:53;;;;;;;2.70;0.77;;;20.60;67.50;;;19.97;49.94;97951.34;5071571;28;20541;-73
2022/07/02 09:47:31;;;;;;;0.80;0.80;;;20.60;68.70;;;19.93;51.05;97948.44;5071600;28;20414;-73
2022/07/02 09:50:02;;;;;;;2.13;0.73;;;20.60;70.00;;;20.05;52.13;97939.91;5070947;28;20400;-73
2022/07/02 09:52:29;;;;;;;2.20;0.90;;;20.60;71.10;;;20.19;52.39;97943.38;5071258;28;20404;-74
2022/07/02 09:54:55;;;;;;;2.13;0.55;;;20.70;71.80;;;20.39;50.23;97944.88;5071556;28;20435;-73
2022/07/02 09:57:21;;;;;;;2.03;0.60;;;21.00;69.30;;;20.42;50.71;97936.22;5071505;28;20407;-73
2022/07/02 09:59:47;;;;;;;1.80;0.50;;;21.00;69.10;;;20.53;51.14;97942.16;5070729;28;20403;-73
2022/07/02 10:02:23;;;;;;;0.90;0.63;;;21.10;69.60;;;20.62;52.00;97948.44;5071089;28;20447;-73
2022/07/02 10:04:51;;;;;;;2.67;0.60;;;21.20;70.60;;;20.67;51.89;97945.66;5071141;28;20909;-73
2022/07/02 10:07:18;;;;;;;0.70;0.60;;;21.20;70.50;;;20.78;52.75;97952.38;5070946;28;20894;-74
2022/07/02 10:09:46;;;;;;;1.58;0.68;;;21.30;71.50;;;20.90;48.48;97939.19;5070697;28;20391;-73
2022/07/02 10:12:14;;;;;;;1.15;0.70;;;21.40;66.60;;;20.93;49.04;97935.09;5070817;28;20581;-73
2022/07/02 10:14:42;;;;;;;1.55;0.80;;;21.40;66.60;;;20.95;49.46;97922.16;5053125;28;20403;-73
2022/07/02 10:17:09;;;;;;;0.50;0.50;;;21.50;67.00;;;21.02;49.76;97923.31;5071010;28;20460;-74
2022/07/02 10:19:37;;;;;;;1.50;0.60;;;21.60;67.90;;;21.08;48.39;97914.00;5070405;28;20408;-73
2022/07/02 10:22:05;;;;;;;1.87;0.70;;;21.60;65.50;;;21.18;46.69;97915.69;5070805;28;20392;-73
2022/07/02 10:24:31;;;;;;;1.10;0.80;;;21.70;64.20;;;21.21;48.36;97918.56;5070889;28;20396;-74